Buoy 55944

sailwx.info

Track history (hours):
 
Tides and Currents Weather Stations Pressure Air Temp Water Temp Dewpoint Dewpoint Depression Visibility Wind Speed Wind Dir Waves Ship Positions

Drifting buoy 55944

Last reported at 2018-Jun-24 06:00 UTC. Time now 2018-Jun-24 11:00 UTC.
Position S 36°01' E 163°43'.

Water temperature 18.5 ° C

Date/timePositionNaut miles runAvg speedWind from/ knotsBaromVisibWave heightAir tempDewpointWater temp
2018-Jun-24 06:00S 36°01' E 163°43'1 0.8 18.5
2018-Jun-24 05:00S 36°01' E 163°43'0 0.0 18.5
2018-Jun-24 04:00S 36°01' E 163°43'4 0.8 18.5
2018-Jun-23 23:00S 36°01' E 163°38'0 0.0 18.5
2018-Jun-23 22:00S 36°01' E 163°38'1 1.5 18.5
2018-Jun-23 21:00S 36°01' E 163°36'1 1.3 18.5
2018-Jun-23 20:00S 36°00' E 163°35'0 0.5 18.5
2018-Jun-23 19:00S 36°00' E 163°35'1 0.8 18.5
2018-Jun-23 18:00S 35°59' E 163°34'1 0.3 18.5
2018-Jun-23 16:00S 35°59' E 163°34'3 3.4 18.5
2018-Jun-23 15:00S 35°57' E 163°31'1 0.2 18.5
2018-Jun-23 11:00S 35°56' E 163°31'1 0.8 18.5
2018-Jun-23 10:00S 35°56' E 163°30'1 0.6 18.5
2018-Jun-23 09:00S 35°56' E 163°30'1 0.6 18.5
2018-Jun-23 07:00S 35°55' E 163°29'0 0.5 18.5
2018-Jun-23 06:00S 35°55' E 163°29'0 0.5 18.9
2018-Jun-23 05:00S 35°55' E 163°28'5 0.7 19.1
2018-Jun-22 22:00S 35°55' E 163°22'0 0.0 19.2
2018-Jun-22 21:00S 35°55' E 163°22'1 1.3 19.2
2018-Jun-22 20:00S 35°53' E 163°22'1 0.6 19.2
2018-Jun-22 18:00S 35°52' E 163°22'1 0.6 19.2
2018-Jun-22 17:00S 35°52' E 163°22'0 0.0 19.2
2018-Jun-22 16:00S 35°52' E 163°22'0 0.0 19.2
2018-Jun-22 15:00S 35°52' E 163°22'1 0.5 19.2
2018-Jun-22 12:00S 35°52' E 163°20'1 0.8 19.2
2018-Jun-22 11:00S 35°51' E 163°20'0 0.0 19.2
2018-Jun-22 10:00S 35°51' E 163°20'2 0.6 19.3
2018-Jun-22 07:00S 35°49' E 163°19'1 0.6 19.3
2018-Jun-22 06:00S 35°50' E 163°19'4 0.6 19.3
2018-Jun-21 23:00S 35°47' E 163°15'2 1.5 19.3
2018-Jun-21 22:00S 35°46' E 163°14'1 0.6 19.3
2018-Jun-21 21:00S 35°46' E 163°14'2 2.0 19.3
2018-Jun-21 20:00S 35°44' E 163°15'0 0.0 19.3
2018-Jun-21 19:00S 35°44' E 163°15'1 0.8 19.3
2018-Jun-21 18:00S 35°43' E 163°16'0 0.0 19.3
2018-Jun-21 17:00S 35°43' E 163°16'1 0.4 19.3
2018-Jun-21 15:00S 35°44' E 163°16'2 0.5 19.3
2018-Jun-21 11:00S 35°44' E 163°14'1 1.1 19.3
2018-Jun-21 10:00S 35°43' E 163°15'0 0.5 19.3
2018-Jun-21 09:00S 35°43' E 163°14'0 0.5 19.3
2018-Jun-21 08:00S 35°43' E 163°14'1 0.6 19.3
2018-Jun-21 06:00S 35°42' E 163°14'0 0.0 19.3
2018-Jun-21 05:00S 35°42' E 163°14'0 0.0 19.3
2018-Jun-21 04:00S 35°42' E 163°14'0 0.0 19.3
2018-Jun-20 23:00S 35°42' E 163°14'1 1.2 19.3
2018-Jun-20 22:00S 35°41' E 163°14'1 1.2 19.3
2018-Jun-20 21:00S 35°40' E 163°14'0 0.0 19.3
2018-Jun-20 20:00S 35°40' E 163°14'2 1.6 19.3
2018-Jun-20 19:00S 35°39' E 163°16'0 0.0 19.3
2018-Jun-20 18:00S 35°39' E 163°16'0 0.0 19.3
2018-Jun-20 17:00S 35°39' E 163°16'1 0.6 19.3
2018-Jun-20 15:00S 35°38' E 163°17'2 0.7 19.3
2018-Jun-20 12:00S 35°40' E 163°16'0 0.0 19.3
2018-Jun-20 11:00S 35°40' E 163°16'1 0.6 19.3
2018-Jun-20 10:00S 35°41' E 163°16'2 1.6 19.3
2018-Jun-20 09:00S 35°40' E 163°14'1 0.3 19.3
2018-Jun-20 07:00S 35°40' E 163°14'1 1.1 19.2
2018-Jun-20 06:00S 35°39' E 163°13'1 0.6 19.2
2018-Jun-20 05:00S 35°38' E 163°13'0 0.5 19.0
2018-Jun-20 04:00S 35°38' E 163°13'0 0.0 19.0
2018-Jun-20 03:00S 35°38' E 163°13'4 0.9 19.2
2018-Jun-19 23:00S 35°35' E 163°15'1 0.8 19.2
2018-Jun-19 22:00S 35°36' E 163°16'1 0.8 19.3
2018-Jun-19 21:00S 35°35' E 163°16'0 0.0 19.3
2018-Jun-19 20:00S 35°35' E 163°16'2 1.5 19.3
2018-Jun-19 19:00S 35°37' E 163°17'0 0.0 19.3
2018-Jun-19 18:00S 35°37' E 163°17'1 0.6 19.3
2018-Jun-19 17:00S 35°37' E 163°17'2 0.8 19.3
2018-Jun-19 15:00S 35°38' E 163°19'3 1.1 19.3
2018-Jun-19 12:00S 35°41' E 163°20'0 0.5 19.3
2018-Jun-19 11:00S 35°41' E 163°21'1 0.8 19.3
2018-Jun-19 10:00S 35°42' E 163°22'2 1.9 19.3
2018-Jun-19 09:00S 35°44' E 163°22'1 0.4 19.2
2018-Jun-19 07:00S 35°44' E 163°22'2 2.4 19.2
2018-Jun-19 06:00S 35°47' E 163°22'0 0.0 19.2
2018-Jun-19 05:00S 35°47' E 163°22'0 0.0 19.2
2018-Jun-19 04:00S 35°47' E 163°22'3 0.5 19.3
2018-Jun-18 23:00S 35°48' E 163°25'2 0.8 19.3
2018-Jun-18 20:00S 35°50' E 163°25'1 1.2 19.2
2018-Jun-18 19:00S 35°52' E 163°25'0 0.0 19.2
2018-Jun-18 18:00S 35°52' E 163°25'0 0.0 19.2
2018-Jun-18 17:00S 35°52' E 163°25'1 1.0 19.2
2018-Jun-18 16:00S 35°52' E 163°23'0 0.0 19.2
2018-Jun-18 15:00S 35°52' E 163°23'1 0.2 19.2
2018-Jun-18 12:00S 35°52' E 163°23'0 0.0 19.2
2018-Jun-18 11:00S 35°52' E 163°23'1 0.8 19.2
2018-Jun-18 10:00S 35°53' E 163°23'1 1.0 19.2
2018-Jun-18 09:00S 35°53' E 163°22'1 1.1 19.2
2018-Jun-18 08:00S 35°53' E 163°20'0 0.0 19.2
2018-Jun-18 07:00S 35°53' E 163°20'0 0.5 19.3
2018-Jun-18 06:00S 35°53' E 163°20'1 1.0 19.3
2018-Jun-18 05:00S 35°53' E 163°19'0 0.0 19.4
2018-Jun-18 04:00S 35°53' E 163°19'4 0.7 19.4
2018-Jun-17 22:00S 35°54' E 163°14'2 1.9 19.5
2018-Jun-17 21:00S 35°54' E 163°11'0 0.5 19.5
2018-Jun-17 20:00S 35°54' E 163°12'3 1.6 19.5
2018-Jun-17 18:00S 35°53' E 163°08'1 0.6 19.4
2018-Jun-17 16:00S 35°52' E 163°08'4 0.9 19.4
2018-Jun-17 12:00S 35°50' E 163°04'2 1.9 19.4
2018-Jun-17 11:00S 35°49' E 163°02'2 1.5 19.4
2018-Jun-17 10:00S 35°48' E 163°01'0 0.5 19.4
2018-Jun-17 09:00S 35°48' E 163°00'3 3.1 19.4
2018-Jun-17 08:00S 35°46' E 162°58'0 0.0 19.5
2018-Jun-17 07:00S 35°46' E 162°58'2 1.5 19.5
2018-Jun-17 06:00S 35°44' E 162°56'1 1.1 19.5
2018-Jun-17 05:00S 35°44' E 162°55'0 0.0 19.5
2018-Jun-17 04:00S 35°44' E 162°55'7 1.4 19.5
2018-Jun-16 23:00S 35°38' E 162°51'2 2.0 19.5
2018-Jun-16 22:00S 35°36' E 162°50'2 1.5 19.5
2018-Jun-16 21:00S 35°35' E 162°49'0 0.0 19.5
2018-Jun-16 20:00S 35°35' E 162°49'4 3.8 19.5
2018-Jun-16 19:00S 35°32' E 162°45'3 3.1 19.5
2018-Jun-16 18:00S 35°30' E 162°43'0 0.0 19.5
2018-Jun-16 17:00S 35°30' E 162°43'0 0.5 19.5
2018-Jun-16 16:00S 35°30' E 162°43'0 0.0 19.5
2018-Jun-16 15:00S 35°30' E 162°43'9 2.2 19.5
2018-Jun-16 11:00S 35°22' E 162°38'4 3.6 19.6
2018-Jun-16 10:00S 35°19' E 162°36'0 0.0 19.6
2018-Jun-16 09:00S 35°19' E 162°36'4 1.9 19.6
2018-Jun-16 07:00S 35°16' E 162°33'2 1.0 19.5
2018-Jun-16 05:00S 35°14' E 162°32'0 0.0 19.5
2018-Jun-16 04:00S 35°14' E 162°32'11 2.2 19.5
2018-Jun-15 23:00S 35°09' E 162°20'0 0.0 19.5
2018-Jun-15 22:00S 35°09' E 162°20'3 3.0 19.5
2018-Jun-15 21:00S 35°07' E 162°17'0 0.0 19.4
2018-Jun-15 20:00S 35°07' E 162°17'2 2.3 19.3
2018-Jun-15 19:00S 35°05' E 162°16'2 1.6 19.1
2018-Jun-15 18:00S 35°05' E 162°14'2 2.3 19.1
2018-Jun-15 17:00S 35°04' E 162°11'0 0.0 19.1
2018-Jun-15 16:00S 35°04' E 162°11'9 2.3 19.1
2018-Jun-15 12:00S 34°59' E 162°02'0 0.0 19.0
2018-Jun-15 11:00S 34°59' E 162°02'2 1.6 19.0
2018-Jun-15 10:00S 34°58' E 162°00'1 0.6 18.9
2018-Jun-15 09:00S 34°58' E 162°00'3 3.0 18.9
2018-Jun-15 08:00S 34°56' E 161°57'2 1.6 19.1
2018-Jun-15 07:00S 34°55' E 161°55'1 0.8 19.1
2018-Jun-15 06:00S 34°55' E 161°55'2 2.3 19.1
2018-Jun-15 05:00S 34°53' E 161°52'11 1.8 19.2
2018-Jun-14 23:00S 34°46' E 161°43'1 1.3 19.0
2018-Jun-14 22:00S 34°45' E 161°42'3 3.1 19.0
2018-Jun-14 21:00S 34°43' E 161°39'2 1.2 19.0
2018-Jun-14 19:00S 34°41' E 161°37'1 0.6 18.9
2018-Jun-14 18:00S 34°41' E 161°37'7 3.7 18.9
2018-Jun-14 16:00S 34°38' E 161°29'0 0.0 18.5
2018-Jun-14 12:00S 34°38' E 161°29'1 0.8 18.4
2018-Jun-14 11:00S 34°38' E 161°28'1 0.6 18.4
2018-Jun-14 10:00S 34°38' E 161°28'1 0.6 18.5
2018-Jun-14 08:00S 34°39' E 161°27'1 1.2 18.5
2018-Jun-14 07:00S 34°38' E 161°26'1 0.8 18.5
2018-Jun-14 06:00S 34°39' E 161°25'   18.6
Track history (hours):
 
Tides and Currents Weather Stations Pressure Air Temp Water Temp Dewpoint Dewpoint Depression Visibility Wind Speed Wind Dir Waves Ship Positions

Drifting buoy 55944

Last reported at 2018-Jun-24 06:00 UTC. Time now 2018-Jun-24 11:00 UTC.
Position S 36°01' E 163°43'.

Water temperature 18.5 ° C

Date/timePositionNaut miles runAvg speedWind from/ knotsBaromVisibWave heightAir tempDewpointWater temp
2018-Jun-24 06:00S 36°01' E 163°43'1 0.8 18.5
2018-Jun-24 05:00S 36°01' E 163°43'0 0.0 18.5
2018-Jun-24 04:00S 36°01' E 163°43'4 0.8 18.5
2018-Jun-23 23:00S 36°01' E 163°38'0 0.0 18.5
2018-Jun-23 22:00S 36°01' E 163°38'1 1.5 18.5
2018-Jun-23 21:00S 36°01' E 163°36'1 1.3 18.5
2018-Jun-23 20:00S 36°00' E 163°35'0 0.5 18.5
2018-Jun-23 19:00S 36°00' E 163°35'1 0.8 18.5
2018-Jun-23 18:00S 35°59' E 163°34'1 0.3 18.5
2018-Jun-23 16:00S 35°59' E 163°34'3 3.4 18.5
2018-Jun-23 15:00S 35°57' E 163°31'1 0.2 18.5
2018-Jun-23 11:00S 35°56' E 163°31'1 0.8 18.5
2018-Jun-23 10:00S 35°56' E 163°30'1 0.6 18.5
2018-Jun-23 09:00S 35°56' E 163°30'1 0.6 18.5
2018-Jun-23 07:00S 35°55' E 163°29'0 0.5 18.5
2018-Jun-23 06:00S 35°55' E 163°29'0 0.5 18.9
2018-Jun-23 05:00S 35°55' E 163°28'5 0.7 19.1
2018-Jun-22 22:00S 35°55' E 163°22'0 0.0 19.2
2018-Jun-22 21:00S 35°55' E 163°22'1 1.3 19.2
2018-Jun-22 20:00S 35°53' E 163°22'1 0.6 19.2
2018-Jun-22 18:00S 35°52' E 163°22'1 0.6 19.2
2018-Jun-22 17:00S 35°52' E 163°22'0 0.0 19.2
2018-Jun-22 16:00S 35°52' E 163°22'0 0.0 19.2
2018-Jun-22 15:00S 35°52' E 163°22'1 0.5 19.2
2018-Jun-22 12:00S 35°52' E 163°20'1 0.8 19.2
2018-Jun-22 11:00S 35°51' E 163°20'0 0.0 19.2
2018-Jun-22 10:00S 35°51' E 163°20'2 0.6 19.3
2018-Jun-22 07:00S 35°49' E 163°19'1 0.6 19.3
2018-Jun-22 06:00S 35°50' E 163°19'4 0.6 19.3
2018-Jun-21 23:00S 35°47' E 163°15'2 1.5 19.3
2018-Jun-21 22:00S 35°46' E 163°14'1 0.6 19.3
2018-Jun-21 21:00S 35°46' E 163°14'2 2.0 19.3
2018-Jun-21 20:00S 35°44' E 163°15'0 0.0 19.3
2018-Jun-21 19:00S 35°44' E 163°15'1 0.8 19.3
2018-Jun-21 18:00S 35°43' E 163°16'0 0.0 19.3
2018-Jun-21 17:00S 35°43' E 163°16'1 0.4 19.3
2018-Jun-21 15:00S 35°44' E 163°16'2 0.5 19.3
2018-Jun-21 11:00S 35°44' E 163°14'1 1.1 19.3
2018-Jun-21 10:00S 35°43' E 163°15'0 0.5 19.3
2018-Jun-21 09:00S 35°43' E 163°14'0 0.5 19.3
2018-Jun-21 08:00S 35°43' E 163°14'1 0.6 19.3
2018-Jun-21 06:00S 35°42' E 163°14'0 0.0 19.3
2018-Jun-21 05:00S 35°42' E 163°14'0 0.0 19.3
2018-Jun-21 04:00S 35°42' E 163°14'0 0.0 19.3
2018-Jun-20 23:00S 35°42' E 163°14'1 1.2 19.3
2018-Jun-20 22:00S 35°41' E 163°14'1 1.2 19.3
2018-Jun-20 21:00S 35°40' E 163°14'0 0.0 19.3
2018-Jun-20 20:00S 35°40' E 163°14'2 1.6 19.3
2018-Jun-20 19:00S 35°39' E 163°16'0 0.0 19.3
2018-Jun-20 18:00S 35°39' E 163°16'0 0.0 19.3
2018-Jun-20 17:00S 35°39' E 163°16'1 0.6 19.3
2018-Jun-20 15:00S 35°38' E 163°17'2 0.7 19.3
2018-Jun-20 12:00S 35°40' E 163°16'0 0.0 19.3
2018-Jun-20 11:00S 35°40' E 163°16'1 0.6 19.3
2018-Jun-20 10:00S 35°41' E 163°16'2 1.6 19.3
2018-Jun-20 09:00S 35°40' E 163°14'1 0.3 19.3
2018-Jun-20 07:00S 35°40' E 163°14'1 1.1 19.2
2018-Jun-20 06:00S 35°39' E 163°13'1 0.6 19.2
2018-Jun-20 05:00S 35°38' E 163°13'0 0.5 19.0
2018-Jun-20 04:00S 35°38' E 163°13'0 0.0 19.0
2018-Jun-20 03:00S 35°38' E 163°13'4 0.9 19.2
2018-Jun-19 23:00S 35°35' E 163°15'1 0.8 19.2
2018-Jun-19 22:00S 35°36' E 163°16'1 0.8 19.3
2018-Jun-19 21:00S 35°35' E 163°16'0 0.0 19.3
2018-Jun-19 20:00S 35°35' E 163°16'2 1.5 19.3
2018-Jun-19 19:00S 35°37' E 163°17'0 0.0 19.3
2018-Jun-19 18:00S 35°37' E 163°17'1 0.6 19.3
2018-Jun-19 17:00S 35°37' E 163°17'2 0.8 19.3
2018-Jun-19 15:00S 35°38' E 163°19'3 1.1 19.3
2018-Jun-19 12:00S 35°41' E 163°20'0 0.5 19.3
2018-Jun-19 11:00S 35°41' E 163°21'1 0.8 19.3
2018-Jun-19 10:00S 35°42' E 163°22'2 1.9 19.3
2018-Jun-19 09:00S 35°44' E 163°22'1 0.4 19.2
2018-Jun-19 07:00S 35°44' E 163°22'2 2.4 19.2
2018-Jun-19 06:00S 35°47' E 163°22'0 0.0 19.2
2018-Jun-19 05:00S 35°47' E 163°22'0 0.0 19.2
2018-Jun-19 04:00S 35°47' E 163°22'3 0.5 19.3
2018-Jun-18 23:00S 35°48' E 163°25'2 0.8 19.3
2018-Jun-18 20:00S 35°50' E 163°25'1 1.2 19.2
2018-Jun-18 19:00S 35°52' E 163°25'0 0.0 19.2
2018-Jun-18 18:00S 35°52' E 163°25'0 0.0 19.2
2018-Jun-18 17:00S 35°52' E 163°25'1 1.0 19.2
2018-Jun-18 16:00S 35°52' E 163°23'0 0.0 19.2
2018-Jun-18 15:00S 35°52' E 163°23'1 0.2 19.2
2018-Jun-18 12:00S 35°52' E 163°23'0 0.0 19.2
2018-Jun-18 11:00S 35°52' E 163°23'1 0.8 19.2
2018-Jun-18 10:00S 35°53' E 163°23'1 1.0 19.2
2018-Jun-18 09:00S 35°53' E 163°22'1 1.1 19.2
2018-Jun-18 08:00S 35°53' E 163°20'0 0.0 19.2
2018-Jun-18 07:00S 35°53' E 163°20'0 0.5 19.3
2018-Jun-18 06:00S 35°53' E 163°20'1 1.0 19.3
2018-Jun-18 05:00S 35°53' E 163°19'0 0.0 19.4
2018-Jun-18 04:00S 35°53' E 163°19'4 0.7 19.4
2018-Jun-17 22:00S 35°54' E 163°14'2 1.9 19.5
2018-Jun-17 21:00S 35°54' E 163°11'0 0.5 19.5
2018-Jun-17 20:00S 35°54' E 163°12'3 1.6 19.5
2018-Jun-17 18:00S 35°53' E 163°08'1 0.6 19.4
2018-Jun-17 16:00S 35°52' E 163°08'4 0.9 19.4
2018-Jun-17 12:00S 35°50' E 163°04'2 1.9 19.4
2018-Jun-17 11:00S 35°49' E 163°02'2 1.5 19.4
2018-Jun-17 10:00S 35°48' E 163°01'0 0.5 19.4
2018-Jun-17 09:00S 35°48' E 163°00'3 3.1 19.4
2018-Jun-17 08:00S 35°46' E 162°58'0 0.0 19.5
2018-Jun-17 07:00S 35°46' E 162°58'2 1.5 19.5
2018-Jun-17 06:00S 35°44' E 162°56'1 1.1 19.5
2018-Jun-17 05:00S 35°44' E 162°55'0 0.0 19.5
2018-Jun-17 04:00S 35°44' E 162°55'7 1.4 19.5
2018-Jun-16 23:00S 35°38' E 162°51'2 2.0 19.5
2018-Jun-16 22:00S 35°36' E 162°50'2 1.5 19.5
2018-Jun-16 21:00S 35°35' E 162°49'0 0.0 19.5
2018-Jun-16 20:00S 35°35' E 162°49'4 3.8 19.5
2018-Jun-16 19:00S 35°32' E 162°45'3 3.1 19.5
2018-Jun-16 18:00S 35°30' E 162°43'0 0.0 19.5
2018-Jun-16 17:00S 35°30' E 162°43'0 0.5 19.5
2018-Jun-16 16:00S 35°30' E 162°43'0 0.0 19.5
2018-Jun-16 15:00S 35°30' E 162°43'9 2.2 19.5
2018-Jun-16 11:00S 35°22' E 162°38'4 3.6 19.6
2018-Jun-16 10:00S 35°19' E 162°36'0 0.0 19.6
2018-Jun-16 09:00S 35°19' E 162°36'4 1.9 19.6
2018-Jun-16 07:00S 35°16' E 162°33'2 1.0 19.5
2018-Jun-16 05:00S 35°14' E 162°32'0 0.0 19.5
2018-Jun-16 04:00S 35°14' E 162°32'11 2.2 19.5
2018-Jun-15 23:00S 35°09' E 162°20'0 0.0 19.5
2018-Jun-15 22:00S 35°09' E 162°20'3 3.0 19.5
2018-Jun-15 21:00S 35°07' E 162°17'0 0.0 19.4
2018-Jun-15 20:00S 35°07' E 162°17'2 2.3 19.3
2018-Jun-15 19:00S 35°05' E 162°16'2 1.6 19.1
2018-Jun-15 18:00S 35°05' E 162°14'2 2.3 19.1
2018-Jun-15 17:00S 35°04' E 162°11'0 0.0 19.1
2018-Jun-15 16:00S 35°04' E 162°11'9 2.3 19.1
2018-Jun-15 12:00S 34°59' E 162°02'0 0.0 19.0
2018-Jun-15 11:00S 34°59' E 162°02'2 1.6 19.0
2018-Jun-15 10:00S 34°58' E 162°00'1 0.6 18.9
2018-Jun-15 09:00S 34°58' E 162°00'3 3.0 18.9
2018-Jun-15 08:00S 34°56' E 161°57'2 1.6 19.1
2018-Jun-15 07:00S 34°55' E 161°55'1 0.8 19.1
2018-Jun-15 06:00S 34°55' E 161°55'2 2.3 19.1
2018-Jun-15 05:00S 34°53' E 161°52'11 1.8 19.2
2018-Jun-14 23:00S 34°46' E 161°43'1 1.3 19.0
2018-Jun-14 22:00S 34°45' E 161°42'3 3.1 19.0
2018-Jun-14 21:00S 34°43' E 161°39'2 1.2 19.0
2018-Jun-14 19:00S 34°41' E 161°37'1 0.6 18.9
2018-Jun-14 18:00S 34°41' E 161°37'7 3.7 18.9
2018-Jun-14 16:00S 34°38' E 161°29'0 0.0 18.5
2018-Jun-14 12:00S 34°38' E 161°29'1 0.8 18.4
2018-Jun-14 11:00S 34°38' E 161°28'1 0.6 18.4
2018-Jun-14 10:00S 34°38' E 161°28'1 0.6 18.5
2018-Jun-14 08:00S 34°39' E 161°27'1 1.2 18.5
2018-Jun-14 07:00S 34°38' E 161°26'1 0.8 18.5
2018-Jun-14 06:00S 34°39' E 161°25'   18.6

Dump ship's entire track history